sensor_id;sensor_type;location;lat;lon;timestamp;temperature;humidity
12887;DHT22;6511;49.746;6.094;2023-03-23T00:01:24;12.60;99.90
12887;DHT22;6511;49.746;6.094;2023-03-23T00:03:53;12.80;99.90
12887;DHT22;6511;49.746;6.094;2023-03-23T00:06:19;12.70;99.90
12887;DHT22;6511;49.746;6.094;2023-03-23T00:08:50;12.90;99.90
12887;DHT22;6511;49.746;6.094;2023-03-23T00:11:23;12.80;99.90
12887;DHT22;6511;49.746;6.094;2023-03-23T00:13:52;12.70;99.90
12887;DHT22;6511;49.746;6.094;2023-03-23T00:16:20;12.50;99.90
12887;DHT22;6511;49.746;6.094;2023-03-23T00:18:46;12.20;99.90
12887;DHT22;6511;49.746;6.094;2023-03-23T00:21:12;12.20;99.90
12887;DHT22;6511;49.746;6.094;2023-03-23T00:23:38;12.10;99.90
12887;DHT22;6511;49.746;6.094;2023-03-23T00:26:04;12.00;99.90
12887;DHT22;6511;49.746;6.094;2023-03-23T00:28:30;12.10;99.90
12887;DHT22;6511;49.746;6.094;2023-03-23T00:31:04;12.10;99.90
12887;DHT22;6511;49.746;6.094;2023-03-23T00:33:33;12.00;99.90
12887;DHT22;6511;49.746;6.094;2023-03-23T00:36:08;12.10;99.90
12887;DHT22;6511;49.746;6.094;2023-03-23T00:38:35;12.00;99.90
12887;DHT22;6511;49.746;6.094;2023-03-23T00:41:01;12.00;99.90
12887;DHT22;6511;49.746;6.094;2023-03-23T00:43:31;12.10;99.90
12887;DHT22;6511;49.746;6.094;2023-03-23T00:45:57;12.20;99.90
12887;DHT22;6511;49.746;6.094;2023-03-23T00:48:27;12.30;99.90
12887;DHT22;6511;49.746;6.094;2023-03-23T00:50:54;12.40;99.90
12887;DHT22;6511;49.746;6.094;2023-03-23T00:53:20;12.40;99.90
12887;DHT22;6511;49.746;6.094;2023-03-23T00:55:46;12.30;99.90
12887;DHT22;6511;49.746;6.094;2023-03-23T00:58:13;12.40;99.90
12887;DHT22;6511;49.746;6.094;2023-03-23T01:00:40;12.20;99.90
12887;DHT22;6511;49.746;6.094;2023-03-23T01:03:07;12.20;99.90
12887;DHT22;6511;49.746;6.094;2023-03-23T01:05:35;12.10;99.90
12887;DHT22;6511;49.746;6.094;2023-03-23T01:08:02;11.80;99.90
12887;DHT22;6511;49.746;6.094;2023-03-23T01:10:28;11.50;99.90
12887;DHT22;6511;49.746;6.094;2023-03-23T01:12:54;11.40;99.90
12887;DHT22;6511;49.746;6.094;2023-03-23T01:15:20;11.30;99.90
12887;DHT22;6511;49.746;6.094;2023-03-23T01:17:46;11.20;99.90
12887;DHT22;6511;49.746;6.094;2023-03-23T01:20:14;11.30;99.90
12887;DHT22;6511;49.746;6.094;2023-03-23T01:22:41;11.30;99.90
12887;DHT22;6511;49.746;6.094;2023-03-23T01:25:07;11.20;99.90
12887;DHT22;6511;49.746;6.094;2023-03-23T01:27:33;11.10;99.90
12887;DHT22;6511;49.746;6.094;2023-03-23T01:29:59;11.10;99.90
12887;DHT22;6511;49.746;6.094;2023-03-23T01:32:25;11.30;99.90
12887;DHT22;6511;49.746;6.094;2023-03-23T01:34:50;11.40;99.90
12887;DHT22;6511;49.746;6.094;2023-03-23T01:37:16;11.30;99.90
12887;DHT22;6511;49.746;6.094;2023-03-23T01:39:42;11.30;99.90
12887;DHT22;6511;49.746;6.094;2023-03-23T01:42:11;11.20;99.90
12887;DHT22;6511;49.746;6.094;2023-03-23T01:47:40;11.30;99.90
12887;DHT22;6511;49.746;6.094;2023-03-23T01:50:06;11.10;99.90
12887;DHT22;6511;49.746;6.094;2023-03-23T01:52:33;11.00;99.90
12887;DHT22;6511;49.746;6.094;2023-03-23T01:54:59;11.00;99.90
12887;DHT22;6511;49.746;6.094;2023-03-23T01:57:26;11.00;99.90
12887;DHT22;6511;49.746;6.094;2023-03-23T01:59:53;10.80;99.90
12887;DHT22;6511;49.746;6.094;2023-03-23T02:02:22;10.90;99.90
12887;DHT22;6511;49.746;6.094;2023-03-23T02:04:47;10.90;99.90
12887;DHT22;6511;49.746;6.094;2023-03-23T02:07:15;10.90;99.90
12887;DHT22;6511;49.746;6.094;2023-03-23T02:09:42;11.10;99.90
12887;DHT22;6511;49.746;6.094;2023-03-23T02:12:08;11.10;99.90
12887;DHT22;6511;49.746;6.094;2023-03-23T02:14:33;11.10;99.90
12887;DHT22;6511;49.746;6.094;2023-03-23T02:36:58;10.90;99.90
12887;DHT22;6511;49.746;6.094;2023-03-23T02:42:07;11.10;99.90
12887;DHT22;6511;49.746;6.094;2023-03-23T02:44:37;11.10;99.90
12887;DHT22;6511;49.746;6.094;2023-03-23T02:47:06;11.20;99.90
12887;DHT22;6511;49.746;6.094;2023-03-23T02:49:35;11.20;99.90
12887;DHT22;6511;49.746;6.094;2023-03-23T02:52:12;11.20;99.90
12887;DHT22;6511;49.746;6.094;2023-03-23T02:54:42;11.20;99.90
12887;DHT22;6511;49.746;6.094;2023-03-23T02:57:09;11.10;99.90
12887;DHT22;6511;49.746;6.094;2023-03-23T02:59:35;11.20;99.90
12887;DHT22;6511;49.746;6.094;2023-03-23T03:02:14;11.20;99.90
12887;DHT22;6511;49.746;6.094;2023-03-23T03:04:46;11.10;99.90
12887;DHT22;6511;49.746;6.094;2023-03-23T03:07:36;11.20;99.90
12887;DHT22;6511;49.746;6.094;2023-03-23T03:10:31;11.30;99.90
12887;DHT22;6511;49.746;6.094;2023-03-23T03:15:31;11.30;99.90
12887;DHT22;6511;49.746;6.094;2023-03-23T03:20:33;11.20;99.90
12887;DHT22;6511;49.746;6.094;2023-03-23T03:23:01;11.30;99.90
12887;DHT22;6511;49.746;6.094;2023-03-23T03:25:28;11.10;99.90
12887;DHT22;6511;49.746;6.094;2023-03-23T03:27:54;11.40;99.90
12887;DHT22;6511;49.746;6.094;2023-03-23T03:30:25;11.40;99.90
12887;DHT22;6511;49.746;6.094;2023-03-23T03:32:53;11.30;99.90
12887;DHT22;6511;49.746;6.094;2023-03-23T03:35:23;11.30;99.90
12887;DHT22;6511;49.746;6.094;2023-03-23T03:37:49;11.30;99.90
12887;DHT22;6511;49.746;6.094;2023-03-23T03:40:18;11.40;99.90
12887;DHT22;6511;49.746;6.094;2023-03-23T03:42:45;11.60;99.90
12887;DHT22;6511;49.746;6.094;2023-03-23T03:45:20;11.60;99.90
12887;DHT22;6511;49.746;6.094;2023-03-23T03:47:46;11.50;99.90
12887;DHT22;6511;49.746;6.094;2023-03-23T03:50:12;11.40;99.90
12887;DHT22;6511;49.746;6.094;2023-03-23T03:52:38;11.40;99.90
12887;DHT22;6511;49.746;6.094;2023-03-23T03:55:06;11.40;99.90
12887;DHT22;6511;49.746;6.094;2023-03-23T03:57:33;11.50;99.90
12887;DHT22;6511;49.746;6.094;2023-03-23T03:59:59;11.30;99.90
12887;DHT22;6511;49.746;6.094;2023-03-23T04:02:24;11.40;99.90
12887;DHT22;6511;49.746;6.094;2023-03-23T04:04:50;11.20;99.90
12887;DHT22;6511;49.746;6.094;2023-03-23T04:07:18;11.40;99.90
12887;DHT22;6511;49.746;6.094;2023-03-23T04:09:45;11.40;99.90
12887;DHT22;6511;49.746;6.094;2023-03-23T04:12:12;11.50;99.90
12887;DHT22;6511;49.746;6.094;2023-03-23T04:14:38;11.10;99.90
12887;DHT22;6511;49.746;6.094;2023-03-23T04:17:04;11.00;99.90
12887;DHT22;6511;49.746;6.094;2023-03-23T04:19:29;11.20;99.90
12887;DHT22;6511;49.746;6.094;2023-03-23T04:21:58;11.40;99.90
12887;DHT22;6511;49.746;6.094;2023-03-23T04:24:24;11.50;99.90
12887;DHT22;6511;49.746;6.094;2023-03-23T04:26:50;11.50;99.90
12887;DHT22;6511;49.746;6.094;2023-03-23T04:29:19;11.40;99.90
12887;DHT22;6511;49.746;6.094;2023-03-23T04:31:45;11.40;99.90
12887;DHT22;6511;49.746;6.094;2023-03-23T04:34:11;11.40;99.90
12887;DHT22;6511;49.746;6.094;2023-03-23T04:36:40;11.50;99.90
12887;DHT22;6511;49.746;6.094;2023-03-23T04:39:06;11.40;99.90
12887;DHT22;6511;49.746;6.094;2023-03-23T04:41:35;11.50;99.90
12887;DHT22;6511;49.746;6.094;2023-03-23T04:44:01;11.50;99.90
12887;DHT22;6511;49.746;6.094;2023-03-23T04:46:29;11.70;99.90
12887;DHT22;6511;49.746;6.094;2023-03-23T04:48:55;11.80;99.90
12887;DHT22;6511;49.746;6.094;2023-03-23T04:51:24;11.90;99.90
12887;DHT22;6511;49.746;6.094;2023-03-23T04:53:51;12.00;99.90
12887;DHT22;6511;49.746;6.094;2023-03-23T04:56:17;12.10;99.90
12887;DHT22;6511;49.746;6.094;2023-03-23T04:58:44;12.20;99.90
12887;DHT22;6511;49.746;6.094;2023-03-23T05:01:11;12.20;99.90
12887;DHT22;6511;49.746;6.094;2023-03-23T05:03:40;12.20;99.90
12887;DHT22;6511;49.746;6.094;2023-03-23T05:06:06;12.00;99.90
12887;DHT22;6511;49.746;6.094;2023-03-23T05:08:32;12.20;99.90
12887;DHT22;6511;49.746;6.094;2023-03-23T05:10:59;12.30;99.90
12887;DHT22;6511;49.746;6.094;2023-03-23T05:13:25;12.30;99.90
12887;DHT22;6511;49.746;6.094;2023-03-23T05:15:52;12.30;99.90
12887;DHT22;6511;49.746;6.094;2023-03-23T05:18:17;12.40;99.90
12887;DHT22;6511;49.746;6.094;2023-03-23T05:20:45;12.30;99.90
12887;DHT22;6511;49.746;6.094;2023-03-23T05:23:11;12.20;99.90
12887;DHT22;6511;49.746;6.094;2023-03-23T05:25:38;12.20;99.90
12887;DHT22;6511;49.746;6.094;2023-03-23T05:28:11;12.40;99.90
12887;DHT22;6511;49.746;6.094;2023-03-23T05:30:38;12.60;99.90
12887;DHT22;6511;49.746;6.094;2023-03-23T05:33:04;12.50;99.90
12887;DHT22;6511;49.746;6.094;2023-03-23T05:35:30;12.40;99.90
12887;DHT22;6511;49.746;6.094;2023-03-23T05:37:56;12.60;99.90
12887;DHT22;6511;49.746;6.094;2023-03-23T05:40:22;12.70;99.90
12887;DHT22;6511;49.746;6.094;2023-03-23T05:42:51;12.40;99.90
12887;DHT22;6511;49.746;6.094;2023-03-23T05:45:17;12.20;99.90
12887;DHT22;6511;49.746;6.094;2023-03-23T05:47:43;12.40;99.90
12887;DHT22;6511;49.746;6.094;2023-03-23T05:50:10;12.40;99.90
12887;DHT22;6511;49.746;6.094;2023-03-23T05:52:36;12.40;99.90
12887;DHT22;6511;49.746;6.094;2023-03-23T05:55:03;12.40;99.90
12887;DHT22;6511;49.746;6.094;2023-03-23T05:57:29;12.30;99.90
12887;DHT22;6511;49.746;6.094;2023-03-23T05:59:55;12.40;99.90
12887;DHT22;6511;49.746;6.094;2023-03-23T06:02:23;12.40;99.90
12887;DHT22;6511;49.746;6.094;2023-03-23T06:04:50;12.60;99.90
12887;DHT22;6511;49.746;6.094;2023-03-23T06:07:16;12.70;99.90
12887;DHT22;6511;49.746;6.094;2023-03-23T06:09:41;12.80;99.90
12887;DHT22;6511;49.746;6.094;2023-03-23T06:12:09;12.80;99.90
12887;DHT22;6511;49.746;6.094;2023-03-23T06:14:36;12.80;99.90
12887;DHT22;6511;49.746;6.094;2023-03-23T06:17:02;12.80;99.90
12887;DHT22;6511;49.746;6.094;2023-03-23T06:19:28;12.90;99.90
12887;DHT22;6511;49.746;6.094;2023-03-23T06:21:56;12.80;99.90
12887;DHT22;6511;49.746;6.094;2023-03-23T06:24:22;12.70;99.90
12887;DHT22;6511;49.746;6.094;2023-03-23T06:26:48;12.70;99.90
12887;DHT22;6511;49.746;6.094;2023-03-23T06:29:15;12.60;99.90
12887;DHT22;6511;49.746;6.094;2023-03-23T06:31:43;12.80;99.90
12887;DHT22;6511;49.746;6.094;2023-03-23T06:34:10;12.70;99.90
12887;DHT22;6511;49.746;6.094;2023-03-23T06:36:37;12.80;99.90
12887;DHT22;6511;49.746;6.094;2023-03-23T06:39:04;12.80;99.90
12887;DHT22;6511;49.746;6.094;2023-03-23T06:41:33;12.80;99.90
12887;DHT22;6511;49.746;6.094;2023-03-23T06:44:00;12.80;99.90
12887;DHT22;6511;49.746;6.094;2023-03-23T06:46:27;12.60;99.90
12887;DHT22;6511;49.746;6.094;2023-03-23T06:48:53;12.60;99.90
12887;DHT22;6511;49.746;6.094;2023-03-23T06:51:19;12.30;99.90
12887;DHT22;6511;49.746;6.094;2023-03-23T06:53:45;12.20;99.90
12887;DHT22;6511;49.746;6.094;2023-03-23T06:56:10;12.00;99.90
12887;DHT22;6511;49.746;6.094;2023-03-23T06:58:37;11.90;99.90
12887;DHT22;6511;49.746;6.094;2023-03-23T07:01:03;11.90;99.90
12887;DHT22;6511;49.746;6.094;2023-03-23T07:03:29;11.70;99.90
12887;DHT22;6511;49.746;6.094;2023-03-23T07:05:56;11.80;99.90
12887;DHT22;6511;49.746;6.094;2023-03-23T07:08:22;11.80;99.90
12887;DHT22;6511;49.746;6.094;2023-03-23T07:10:51;11.80;99.90
12887;DHT22;6511;49.746;6.094;2023-03-23T07:13:18;11.80;99.90
12887;DHT22;6511;49.746;6.094;2023-03-23T07:15:44;11.80;99.90
12887;DHT22;6511;49.746;6.094;2023-03-23T07:18:09;11.70;99.90
12887;DHT22;6511;49.746;6.094;2023-03-23T07:20:35;11.50;99.90
12887;DHT22;6511;49.746;6.094;2023-03-23T07:23:02;11.80;99.90
12887;DHT22;6511;49.746;6.094;2023-03-23T07:25:27;11.90;99.90
12887;DHT22;6511;49.746;6.094;2023-03-23T07:27:53;11.80;99.90
12887;DHT22;6511;49.746;6.094;2023-03-23T07:30:19;11.80;99.90
12887;DHT22;6511;49.746;6.094;2023-03-23T07:32:45;11.70;99.90
12887;DHT22;6511;49.746;6.094;2023-03-23T07:35:11;11.80;99.90
12887;DHT22;6511;49.746;6.094;2023-03-23T07:37:36;12.00;99.90
12887;DHT22;6511;49.746;6.094;2023-03-23T07:40:03;11.80;99.90
12887;DHT22;6511;49.746;6.094;2023-03-23T07:42:40;11.70;99.90
12887;DHT22;6511;49.746;6.094;2023-03-23T07:45:07;12.10;99.90
12887;DHT22;6511;49.746;6.094;2023-03-23T07:47:32;12.10;99.90
12887;DHT22;6511;49.746;6.094;2023-03-23T07:49:58;12.10;99.90
12887;DHT22;6511;49.746;6.094;2023-03-23T07:52:23;12.40;99.90
12887;DHT22;6511;49.746;6.094;2023-03-23T07:54:49;12.30;99.90
12887;DHT22;6511;49.746;6.094;2023-03-23T07:57:15;12.30;99.90
12887;DHT22;6511;49.746;6.094;2023-03-23T07:59:40;12.30;99.90
12887;DHT22;6511;49.746;6.094;2023-03-23T08:02:08;12.10;99.90
12887;DHT22;6511;49.746;6.094;2023-03-23T08:04:35;12.00;99.90
12887;DHT22;6511;49.746;6.094;2023-03-23T08:07:03;11.80;99.90
12887;DHT22;6511;49.746;6.094;2023-03-23T08:09:30;12.10;99.90
12887;DHT22;6511;49.746;6.094;2023-03-23T08:11:56;11.90;99.90
12887;DHT22;6511;49.746;6.094;2023-03-23T08:14:22;11.80;99.90
12887;DHT22;6511;49.746;6.094;2023-03-23T08:16:48;11.40;99.90
12887;DHT22;6511;49.746;6.094;2023-03-23T08:19:14;11.40;99.90
12887;DHT22;6511;49.746;6.094;2023-03-23T08:21:40;11.30;99.90
12887;DHT22;6511;49.746;6.094;2023-03-23T08:24:06;11.40;99.90
12887;DHT22;6511;49.746;6.094;2023-03-23T08:26:32;11.30;99.90
12887;DHT22;6511;49.746;6.094;2023-03-23T08:28:57;11.70;99.90
12887;DHT22;6511;49.746;6.094;2023-03-23T08:31:23;11.60;99.90
12887;DHT22;6511;49.746;6.094;2023-03-23T08:33:49;11.70;99.90
12887;DHT22;6511;49.746;6.094;2023-03-23T08:36:14;12.10;99.90
12887;DHT22;6511;49.746;6.094;2023-03-23T08:38:40;11.70;99.90
12887;DHT22;6511;49.746;6.094;2023-03-23T08:41:06;12.00;99.90
12887;DHT22;6511;49.746;6.094;2023-03-23T08:43:33;11.80;99.90
12887;DHT22;6511;49.746;6.094;2023-03-23T08:45:59;11.70;99.90
12887;DHT22;6511;49.746;6.094;2023-03-23T08:48:26;11.40;99.90
12887;DHT22;6511;49.746;6.094;2023-03-23T08:50:53;11.30;99.90
12887;DHT22;6511;49.746;6.094;2023-03-23T08:53:19;11.50;99.90
12887;DHT22;6511;49.746;6.094;2023-03-23T08:55:47;11.40;99.90
12887;DHT22;6511;49.746;6.094;2023-03-23T08:58:12;11.70;99.90
12887;DHT22;6511;49.746;6.094;2023-03-23T09:00:38;11.90;99.90
12887;DHT22;6511;49.746;6.094;2023-03-23T09:03:04;12.30;99.90
12887;DHT22;6511;49.746;6.094;2023-03-23T09:05:30;12.30;99.90
12887;DHT22;6511;49.746;6.094;2023-03-23T09:07:57;12.30;99.90
12887;DHT22;6511;49.746;6.094;2023-03-23T09:10:27;12.30;99.90
12887;DHT22;6511;49.746;6.094;2023-03-23T09:12:54;12.30;99.90
12887;DHT22;6511;49.746;6.094;2023-03-23T09:15:20;12.20;99.90
12887;DHT22;6511;49.746;6.094;2023-03-23T09:17:48;12.40;99.90
12887;DHT22;6511;49.746;6.094;2023-03-23T09:20:18;12.30;99.90
12887;DHT22;6511;49.746;6.094;2023-03-23T09:22:48;12.20;99.90
12887;DHT22;6511;49.746;6.094;2023-03-23T09:25:16;12.50;99.90
12887;DHT22;6511;49.746;6.094;2023-03-23T09:27:44;12.90;99.90
12887;DHT22;6511;49.746;6.094;2023-03-23T09:30:13;13.20;99.90
12887;DHT22;6511;49.746;6.094;2023-03-23T09:32:40;12.90;99.90
12887;DHT22;6511;49.746;6.094;2023-03-23T09:35:08;13.00;99.90
12887;DHT22;6511;49.746;6.094;2023-03-23T09:37:35;12.70;99.90
12887;DHT22;6511;49.746;6.094;2023-03-23T09:40:06;12.90;99.90
12887;DHT22;6511;49.746;6.094;2023-03-23T09:42:49;13.20;99.90
12887;DHT22;6511;49.746;6.094;2023-03-23T09:50:55;13.60;99.90
12887;DHT22;6511;49.746;6.094;2023-03-23T09:53:45;13.30;99.90
12887;DHT22;6511;49.746;6.094;2023-03-23T09:56:14;13.70;99.90
12887;DHT22;6511;49.746;6.094;2023-03-23T09:58:55;13.50;99.90
12887;DHT22;6511;49.746;6.094;2023-03-23T10:01:30;13.60;99.90
12887;DHT22;6511;49.746;6.094;2023-03-23T10:04:54;14.10;99.90
12887;DHT22;6511;49.746;6.094;2023-03-23T10:07:12;14.40;99.90
12887;DHT22;6511;49.746;6.094;2023-03-23T10:09:40;14.40;99.90
12887;DHT22;6511;49.746;6.094;2023-03-23T10:14:44;13.80;99.90
12887;DHT22;6511;49.746;6.094;2023-03-23T10:17:14;14.00;99.90
12887;DHT22;6511;49.746;6.094;2023-03-23T10:19:48;14.20;99.90
12887;DHT22;6511;49.746;6.094;2023-03-23T10:22:18;14.60;99.90
12887;DHT22;6511;49.746;6.094;2023-03-23T10:24:51;14.70;99.90
12887;DHT22;6511;49.746;6.094;2023-03-23T10:27:33;15.00;99.90
12887;DHT22;6511;49.746;6.094;2023-03-23T10:30:25;14.70;99.90
12887;DHT22;6511;49.746;6.094;2023-03-23T10:32:57;14.50;99.90
12887;DHT22;6511;49.746;6.094;2023-03-23T10:35:31;15.30;99.90
12887;DHT22;6511;49.746;6.094;2023-03-23T10:38:14;15.40;99.90
12887;DHT22;6511;49.746;6.094;2023-03-23T10:40:56;15.40;99.90
12887;DHT22;6511;49.746;6.094;2023-03-23T10:43:24;15.30;99.90
12887;DHT22;6511;49.746;6.094;2023-03-23T10:45:59;15.20;99.90
12887;DHT22;6511;49.746;6.094;2023-03-23T10:48:37;15.60;99.90
12887;DHT22;6511;49.746;6.094;2023-03-23T10:51:08;16.20;99.90
12887;DHT22;6511;49.746;6.094;2023-03-23T10:53:37;16.10;99.90
12887;DHT22;6511;49.746;6.094;2023-03-23T10:56:05;16.30;99.90
12887;DHT22;6511;49.746;6.094;2023-03-23T10:58:35;16.50;99.90
12887;DHT22;6511;49.746;6.094;2023-03-23T11:01:03;16.60;99.90
12887;DHT22;6511;49.746;6.094;2023-03-23T11:06:23;17.20;99.90
12887;DHT22;6511;49.746;6.094;2023-03-23T11:11:41;17.50;99.90
12887;DHT22;6511;49.746;6.094;2023-03-23T11:16:57;17.10;99.90
12887;DHT22;6511;49.746;6.094;2023-03-23T11:19:35;17.00;99.90
12887;DHT22;6511;49.746;6.094;2023-03-23T11:24:33;17.00;99.90
12887;DHT22;6511;49.746;6.094;2023-03-23T11:26:59;17.00;99.90
12887;DHT22;6511;49.746;6.094;2023-03-23T11:29:27;16.90;99.90
12887;DHT22;6511;49.746;6.094;2023-03-23T11:32:06;17.30;99.90
12887;DHT22;6511;49.746;6.094;2023-03-23T11:39:59;17.30;99.90
12887;DHT22;6511;49.746;6.094;2023-03-23T11:45:21;16.90;99.90
12887;DHT22;6511;49.746;6.094;2023-03-23T11:50:43;17.00;99.90
12887;DHT22;6511;49.746;6.094;2023-03-23T11:58:26;16.30;99.90
12887;DHT22;6511;49.746;6.094;2023-03-23T12:01:04;16.30;99.90
12887;DHT22;6511;49.746;6.094;2023-03-23T12:06:54;16.10;99.90
12887;DHT22;6511;49.746;6.094;2023-03-23T12:09:47;16.00;99.90
12887;DHT22;6511;49.746;6.094;2023-03-23T12:13:21;15.60;99.90
12887;DHT22;6511;49.746;6.094;2023-03-23T12:15:32;15.90;99.90
12887;DHT22;6511;49.746;6.094;2023-03-23T12:18:36;16.00;99.90
12887;DHT22;6511;49.746;6.094;2023-03-23T12:21:00;16.00;99.90
12887;DHT22;6511;49.746;6.094;2023-03-23T12:23:44;15.90;99.90
12887;DHT22;6511;49.746;6.094;2023-03-23T12:31:47;16.10;99.90
12887;DHT22;6511;49.746;6.094;2023-03-23T12:48:28;16.20;99.90
12887;DHT22;6511;49.746;6.094;2023-03-23T12:51:32;16.20;99.90
12887;DHT22;6511;49.746;6.094;2023-03-23T13:02:34;16.50;99.90
12887;DHT22;6511;49.746;6.094;2023-03-23T13:05:04;16.50;99.90
12887;DHT22;6511;49.746;6.094;2023-03-23T13:07:37;16.40;99.90
12887;DHT22;6511;49.746;6.094;2023-03-23T13:10:16;16.80;99.90
12887;DHT22;6511;49.746;6.094;2023-03-23T13:12:45;17.00;99.90
12887;DHT22;6511;49.746;6.094;2023-03-23T13:18:17;16.70;99.90
12887;DHT22;6511;49.746;6.094;2023-03-23T13:20:49;16.70;99.90
12887;DHT22;6511;49.746;6.094;2023-03-23T13:23:24;16.80;99.90
12887;DHT22;6511;49.746;6.094;2023-03-23T13:26:06;17.00;99.90
12887;DHT22;6511;49.746;6.094;2023-03-23T13:31:36;17.10;99.90
12887;DHT22;6511;49.746;6.094;2023-03-23T13:34:26;16.90;99.90
12887;DHT22;6511;49.746;6.094;2023-03-23T13:36:58;16.80;99.90
12887;DHT22;6511;49.746;6.094;2023-03-23T13:39:27;16.70;99.90
12887;DHT22;6511;49.746;6.094;2023-03-23T13:50:08;16.80;99.90
12887;DHT22;6511;49.746;6.094;2023-03-23T14:02:51;16.40;99.90
12887;DHT22;6511;49.746;6.094;2023-03-23T14:10:39;16.60;99.90
12887;DHT22;6511;49.746;6.094;2023-03-23T14:16:04;17.40;99.90
12887;DHT22;6511;49.746;6.094;2023-03-23T14:18:38;17.40;99.90
12887;DHT22;6511;49.746;6.094;2023-03-23T14:21:11;17.50;99.90
12887;DHT22;6511;49.746;6.094;2023-03-23T14:23:39;17.40;99.90
12887;DHT22;6511;49.746;6.094;2023-03-23T14:26:12;17.50;99.90
12887;DHT22;6511;49.746;6.094;2023-03-23T14:28:43;17.40;99.90
12887;DHT22;6511;49.746;6.094;2023-03-23T14:31:24;17.10;99.90
12887;DHT22;6511;49.746;6.094;2023-03-23T14:33:52;17.20;99.90
12887;DHT22;6511;49.746;6.094;2023-03-23T14:36:27;17.10;99.90
12887;DHT22;6511;49.746;6.094;2023-03-23T14:41:29;16.90;99.90
12887;DHT22;6511;49.746;6.094;2023-03-23T14:43:55;16.60;99.90
12887;DHT22;6511;49.746;6.094;2023-03-23T14:46:21;16.90;99.90
12887;DHT22;6511;49.746;6.094;2023-03-23T14:48:47;16.70;99.90
12887;DHT22;6511;49.746;6.094;2023-03-23T14:51:20;16.60;99.90
12887;DHT22;6511;49.746;6.094;2023-03-23T14:53:46;16.70;99.90
12887;DHT22;6511;49.746;6.094;2023-03-23T14:56:18;16.80;99.90
12887;DHT22;6511;49.746;6.094;2023-03-23T14:58:45;16.60;99.90
12887;DHT22;6511;49.746;6.094;2023-03-23T15:01:23;16.50;99.90
12887;DHT22;6511;49.746;6.094;2023-03-23T15:06:26;16.80;99.90
12887;DHT22;6511;49.746;6.094;2023-03-23T15:08:55;17.10;99.90
12887;DHT22;6511;49.746;6.094;2023-03-23T15:11:27;17.40;99.90
12887;DHT22;6511;49.746;6.094;2023-03-23T15:13:59;17.50;99.90
12887;DHT22;6511;49.746;6.094;2023-03-23T15:16:31;17.80;99.90
12887;DHT22;6511;49.746;6.094;2023-03-23T15:19:05;17.70;99.90
12887;DHT22;6511;49.746;6.094;2023-03-23T15:21:46;17.60;99.90
12887;DHT22;6511;49.746;6.094;2023-03-23T15:24:39;17.50;99.90
12887;DHT22;6511;49.746;6.094;2023-03-23T15:27:13;17.40;99.90
12887;DHT22;6511;49.746;6.094;2023-03-23T15:29:47;17.70;99.90
12887;DHT22;6511;49.746;6.094;2023-03-23T15:32:38;17.10;99.90
12887;DHT22;6511;49.746;6.094;2023-03-23T15:35:12;17.20;99.90
12887;DHT22;6511;49.746;6.094;2023-03-23T15:37:45;17.40;99.90
12887;DHT22;6511;49.746;6.094;2023-03-23T15:40:17;17.30;99.90
12887;DHT22;6511;49.746;6.094;2023-03-23T15:42:43;17.30;99.90
12887;DHT22;6511;49.746;6.094;2023-03-23T15:52:52;17.30;99.90
12887;DHT22;6511;49.746;6.094;2023-03-23T15:55:35;17.20;99.90
12887;DHT22;6511;49.746;6.094;2023-03-23T15:58:04;16.90;99.90
12887;DHT22;6511;49.746;6.094;2023-03-23T16:00:33;16.80;99.90
12887;DHT22;6511;49.746;6.094;2023-03-23T16:03:03;16.80;99.90
12887;DHT22;6511;49.746;6.094;2023-03-23T16:05:29;16.80;99.90
12887;DHT22;6511;49.746;6.094;2023-03-23T16:07:55;16.90;99.90
12887;DHT22;6511;49.746;6.094;2023-03-23T16:10:23;16.80;99.90
12887;DHT22;6511;49.746;6.094;2023-03-23T16:12:49;16.90;99.90
12887;DHT22;6511;49.746;6.094;2023-03-23T16:15:15;17.00;99.90
12887;DHT22;6511;49.746;6.094;2023-03-23T16:17:42;16.50;99.90
12887;DHT22;6511;49.746;6.094;2023-03-23T16:20:17;16.50;99.90
12887;DHT22;6511;49.746;6.094;2023-03-23T16:22:43;16.70;99.90
12887;DHT22;6511;49.746;6.094;2023-03-23T16:25:10;16.60;99.90
12887;DHT22;6511;49.746;6.094;2023-03-23T16:27:37;16.70;99.90
12887;DHT22;6511;49.746;6.094;2023-03-23T16:32:38;16.60;99.90
12887;DHT22;6511;49.746;6.094;2023-03-23T16:35:04;16.40;99.90
12887;DHT22;6511;49.746;6.094;2023-03-23T16:37:29;16.40;99.90
12887;DHT22;6511;49.746;6.094;2023-03-23T16:39:57;15.90;99.90
12887;DHT22;6511;49.746;6.094;2023-03-23T16:42:23;15.80;99.90
12887;DHT22;6511;49.746;6.094;2023-03-23T16:44:48;16.00;99.90
12887;DHT22;6511;49.746;6.094;2023-03-23T16:47:15;16.10;99.90
12887;DHT22;6511;49.746;6.094;2023-03-23T16:49:43;16.00;99.90
12887;DHT22;6511;49.746;6.094;2023-03-23T16:52:09;16.00;99.90
12887;DHT22;6511;49.746;6.094;2023-03-23T16:54:35;16.20;99.90
12887;DHT22;6511;49.746;6.094;2023-03-23T16:57:00;16.40;99.90
12887;DHT22;6511;49.746;6.094;2023-03-23T16:59:27;16.20;99.90
12887;DHT22;6511;49.746;6.094;2023-03-23T17:01:53;16.40;99.90
12887;DHT22;6511;49.746;6.094;2023-03-23T17:04:19;16.20;99.90
12887;DHT22;6511;49.746;6.094;2023-03-23T17:06:44;16.20;99.90
12887;DHT22;6511;49.746;6.094;2023-03-23T17:09:11;16.10;99.90
12887;DHT22;6511;49.746;6.094;2023-03-23T17:11:36;16.10;99.90
12887;DHT22;6511;49.746;6.094;2023-03-23T17:14:02;16.10;99.90
12887;DHT22;6511;49.746;6.094;2023-03-23T17:16:28;15.80;99.90
12887;DHT22;6511;49.746;6.094;2023-03-23T17:18:53;15.60;99.90
12887;DHT22;6511;49.746;6.094;2023-03-23T17:21:19;15.60;99.90
12887;DHT22;6511;49.746;6.094;2023-03-23T17:23:49;15.70;99.90
12887;DHT22;6511;49.746;6.094;2023-03-23T17:26:15;15.70;99.90
12887;DHT22;6511;49.746;6.094;2023-03-23T17:28:41;15.60;99.90
12887;DHT22;6511;49.746;6.094;2023-03-23T17:31:07;15.40;99.90
12887;DHT22;6511;49.746;6.094;2023-03-23T17:33:32;15.20;99.90
12887;DHT22;6511;49.746;6.094;2023-03-23T17:35:58;15.20;99.90
12887;DHT22;6511;49.746;6.094;2023-03-23T17:38:23;15.00;99.90
12887;DHT22;6511;49.746;6.094;2023-03-23T17:40:58;14.90;99.90
12887;DHT22;6511;49.746;6.094;2023-03-23T17:43:24;14.90;99.90
12887;DHT22;6511;49.746;6.094;2023-03-23T17:45:50;14.90;99.90
12887;DHT22;6511;49.746;6.094;2023-03-23T17:48:16;15.00;99.90
12887;DHT22;6511;49.746;6.094;2023-03-23T17:50:41;14.80;99.90
12887;DHT22;6511;49.746;6.094;2023-03-23T17:53:10;14.70;99.90
12887;DHT22;6511;49.746;6.094;2023-03-23T17:55:36;14.60;99.90
12887;DHT22;6511;49.746;6.094;2023-03-23T17:58:01;14.60;99.90
12887;DHT22;6511;49.746;6.094;2023-03-23T18:00:27;14.30;99.90
12887;DHT22;6511;49.746;6.094;2023-03-23T18:02:53;14.40;99.90
12887;DHT22;6511;49.746;6.094;2023-03-23T18:05:18;14.30;99.90
12887;DHT22;6511;49.746;6.094;2023-03-23T18:07:44;14.20;99.90
12887;DHT22;6511;49.746;6.094;2023-03-23T18:10:10;14.50;99.90
12887;DHT22;6511;49.746;6.094;2023-03-23T18:12:38;14.60;99.90
12887;DHT22;6511;49.746;6.094;2023-03-23T18:15:04;14.50;99.90
12887;DHT22;6511;49.746;6.094;2023-03-23T18:17:30;14.50;99.90
12887;DHT22;6511;49.746;6.094;2023-03-23T18:19:56;14.40;99.90
12887;DHT22;6511;49.746;6.094;2023-03-23T18:22:21;14.30;99.90